Time;durP1;ratioP1;P1;durP2;ratioP2;P2;SDS_P1;SDS_P2;PMS_P1;PMS_P2;Temp;Humidity;BMP_temperature;BMP_pressure;BME280_temperature;BME280_humidity;BME280_pressure;Samples;Min_cycle;Max_cycle;Signal;HPM_P1;HPM_P2
2022/09/06 00:02:05;;;;;;;3.50;3.00;;;;;;;21.95;52.68;98146.06;8314704;28;20236;-76
2022/09/06 00:06:11;;;;;;;4.07;2.87;;;;;;;21.91;53.77;98136.75;8314156;28;20232;-76
2022/09/06 00:10:14;;;;;;;6.93;3.27;;;;;;;21.91;53.32;98142.84;8314359;28;20236;-76
2022/09/06 00:14:17;;;;;;;4.20;3.10;;;;;;;21.82;53.21;98147.16;8314490;28;20234;-76
2022/09/06 00:18:22;;;;;;;4.20;2.70;;;;;;;21.74;53.45;98141.72;8314143;28;20228;-76
2022/09/06 00:22:25;;;;;;;6.33;3.07;;;;;;;21.70;53.31;98153.47;8314364;28;20389;-77
2022/09/06 00:26:28;;;;;;;4.13;2.90;;;;;;;21.73;53.51;98152.41;8314262;28;20232;-77
2022/09/06 00:30:32;;;;;;;5.73;3.23;;;;;;;21.63;53.55;98153.19;8314148;28;20228;-76
2022/09/06 00:34:36;;;;;;;6.93;2.93;;;;;;;21.61;53.86;98147.22;8314092;28;20233;-76
2022/09/06 00:38:40;;;;;;;5.90;2.73;;;;;;;21.62;53.83;98145.41;8314099;28;20429;-76
2022/09/06 00:42:43;;;;;;;4.77;2.83;;;;;;;21.60;53.96;98149.97;8314009;28;20547;-76
2022/09/06 00:46:48;;;;;;;4.90;3.00;;;;;;;21.63;54.18;98153.19;8313876;28;20233;-76
2022/09/06 00:50:54;;;;;;;4.23;3.13;;;;;;;21.61;53.98;98159.53;8313227;28;20235;-76
2022/09/06 00:54:58;;;;;;;3.73;2.97;;;;;;;21.54;53.91;98147.88;8313575;28;20239;-76
2022/09/06 00:59:01;;;;;;;6.03;3.10;;;;;;;21.40;54.38;98146.38;8313709;28;20247;-76
2022/09/06 01:03:04;;;;;;;5.17;3.40;;;;;;;21.46;53.98;98144.09;8313462;28;20237;-76
2022/09/06 01:07:16;;;;;;;4.67;3.13;;;;;;;21.48;53.78;98149.25;8318592;28;20245;-76
2022/09/06 01:11:49;;;;;;;6.27;3.43;;;;;;;21.45;53.99;98146.88;8319360;28;20232;-76
2022/09/06 01:15:56;;;;;;;7.10;3.53;;;;;;;21.43;54.11;98159.31;8306737;28;20523;-76
2022/09/06 01:20:23;;;;;;;5.70;3.30;;;;;;;21.38;54.25;98148.31;8318891;28;20243;-76
2022/09/06 01:24:42;;;;;;;5.83;3.60;;;;;;;21.41;54.41;98161.25;8318919;28;20229;-76
2022/09/06 01:28:47;;;;;;;6.33;3.30;;;;;;;21.39;53.89;98156.09;8318589;28;20236;-76
2022/09/06 01:32:53;;;;;;;3.43;3.00;;;;;;;21.41;53.71;98159.44;8318212;28;20418;-76
2022/09/06 01:37:00;;;;;;;5.17;3.40;;;;;;;21.37;54.42;98151.94;8318543;28;20252;-76
2022/09/06 01:41:12;;;;;;;4.60;3.20;;;;;;;21.33;54.71;98164.53;8318509;28;20229;-76
2022/09/06 01:45:19;;;;;;;4.87;3.03;;;;;;;21.29;54.36;98158.69;8318047;28;20252;-76
2022/09/06 01:49:33;;;;;;;5.23;3.70;;;;;;;21.23;54.69;98163.66;8318133;28;20234;-76
2022/09/06 01:53:54;;;;;;;4.53;3.50;;;;;;;21.23;54.55;98164.50;8318058;28;20242;-75
2022/09/06 01:58:09;;;;;;;4.83;3.30;;;;;;;21.20;54.82;98154.19;8317503;28;20232;-76
2022/09/06 02:02:16;;;;;;;9.07;3.40;;;;;;;21.26;55.13;98166.84;8317555;28;20229;-76
2022/09/06 02:06:22;;;;;;;5.40;3.10;;;;;;;21.22;54.75;98144.38;8317397;28;20238;-76
2022/09/06 02:10:28;;;;;;;5.10;3.63;;;;;;;21.19;55.14;98154.31;8317496;28;20413;-75
2022/09/06 02:14:34;;;;;;;4.33;3.40;;;;;;;21.23;55.12;98145.22;8317288;28;20229;-76
2022/09/06 02:18:40;;;;;;;5.63;3.50;;;;;;;21.24;54.65;98147.69;8317087;28;20225;-75
2022/09/06 02:22:46;;;;;;;5.93;3.40;;;;;;;21.20;55.12;98140.22;8316851;28;20231;-76
2022/09/06 02:26:49;;;;;;;4.47;3.50;;;;;;;21.16;55.20;98139.63;8316434;28;20428;-75
2022/09/06 02:30:57;;;;;;;8.03;3.83;;;;;;;21.14;55.10;98146.84;8316704;28;20258;-76
2022/09/06 02:35:08;;;;;;;4.63;3.70;;;;;;;21.22;54.74;98141.75;8316631;28;20309;-76
2022/09/06 02:39:12;;;;;;;8.33;3.60;;;;;;;21.07;55.37;98129.88;8316792;28;20247;-76
2022/09/06 02:43:14;;;;;;;5.40;3.80;;;;;;;21.11;55.30;98136.56;8316411;28;20380;-76
2022/09/06 02:47:17;;;;;;;5.50;3.83;;;;;;;21.05;55.45;98137.91;8316071;28;20236;-76
2022/09/06 02:51:21;;;;;;;4.53;4.03;;;;;;;20.63;56.85;98137.91;8316242;28;20487;-76
2022/09/06 02:55:24;;;;;;;4.80;4.13;;;;;;;20.96;56.29;98136.06;8316179;28;20534;-76
2022/09/06 02:59:27;;;;;;;5.23;3.90;;;;;;;20.74;56.35;98136.19;8315848;28;20239;-75
2022/09/06 03:03:30;;;;;;;6.13;3.93;;;;;;;20.83;56.41;98141.53;8315513;28;20246;-75
2022/09/06 03:07:34;;;;;;;6.53;4.23;;;;;;;20.81;56.16;98137.34;8315730;28;20225;-76
2022/09/06 03:11:37;;;;;;;6.33;4.40;;;;;;;20.69;56.44;98134.78;8315613;28;20538;-75
2022/09/06 03:15:40;;;;;;;6.07;4.20;;;;;;;20.77;56.35;98130.66;8315381;28;20556;-76
2022/09/06 03:19:43;;;;;;;6.27;3.90;;;;;;;20.83;56.63;98130.16;8315463;28;20255;-76
2022/09/06 03:23:48;;;;;;;5.37;4.80;;;;;;;20.64;56.80;98134.34;8314954;28;20235;-76
2022/09/06 03:27:51;;;;;;;10.17;5.17;;;;;;;20.67;57.16;98135.84;8314063;28;20227;-75
2022/09/06 03:31:53;;;;;;;6.50;4.80;;;;;;;20.67;56.70;98128.78;8314932;28;20239;-75
2022/09/06 03:35:58;;;;;;;6.73;4.60;;;;;;;20.69;56.85;98126.91;8314764;28;20236;-75
2022/09/06 03:40:03;;;;;;;5.20;4.53;;;;;;;20.75;56.92;98117.63;8314625;28;20427;-76
2022/09/06 03:44:06;;;;;;;5.47;4.80;;;;;;;20.70;57.21;98118.03;8314608;28;20308;-76
2022/09/06 03:48:09;;;;;;;7.03;4.90;;;;;;;20.74;57.01;98113.34;8314742;28;20231;-75
2022/09/06 03:52:12;;;;;;;6.90;5.13;;;;;;;20.52;57.49;98119.50;8314699;28;20226;-76
2022/09/06 03:56:16;;;;;;;5.13;4.63;;;;;;;20.44;58.07;98119.31;8314640;28;20239;-75
2022/09/06 04:00:19;;;;;;;6.30;5.43;;;;;;;20.66;57.55;98108.72;8314136;28;20264;-76
2022/09/06 04:04:22;;;;;;;7.87;5.33;;;;;;;20.70;57.45;98106.69;8314391;28;20519;-75
2022/09/06 04:08:25;;;;;;;8.10;4.77;;;;;;;20.67;57.33;98107.75;8314261;28;20233;-76
2022/09/06 04:12:29;;;;;;;5.93;5.30;;;;;;;20.69;57.50;98108.47;8314406;28;20220;-76
2022/09/06 04:16:32;;;;;;;5.53;5.03;;;;;;;20.74;57.43;98109.88;8314019;28;20228;-76
2022/09/06 04:20:35;;;;;;;10.43;5.20;;;;;;;20.72;57.83;98110.00;8314287;28;20231;-76
2022/09/06 04:24:38;;;;;;;8.37;5.37;;;;;;;20.76;57.59;98102.69;8314134;28;20234;-75
2022/09/06 04:28:42;;;;;;;8.07;5.40;;;;;;;20.68;57.50;98104.16;8313796;28;20232;-76
2022/09/06 04:32:45;;;;;;;7.13;5.40;;;;;;;20.67;58.06;98105.09;8313952;28;20236;-75
2022/09/06 04:36:47;;;;;;;7.37;5.73;;;;;;;20.67;58.07;98110.38;8313243;28;20239;-75
2022/09/06 04:40:50;;;;;;;7.40;5.70;;;;;;;20.67;57.62;98109.56;8316772;28;20236;-75
2022/09/06 04:44:54;;;;;;;7.37;6.13;;;;;;;20.59;57.87;98109.34;8320014;28;20232;-76
2022/09/06 04:49:00;;;;;;;6.37;5.77;;;;;;;20.51;58.33;98118.69;8319865;28;20231;-76
2022/09/06 04:53:03;;;;;;;7.73;6.00;;;;;;;20.48;58.53;98116.28;8319786;28;20243;-77
2022/09/06 04:57:06;;;;;;;6.90;6.20;;;;;;;20.70;57.79;98096.97;8320026;28;20236;-76
2022/09/06 05:01:10;;;;;;;8.00;6.10;;;;;;;20.69;58.07;98090.06;8319595;28;20235;-76
2022/09/06 05:05:13;;;;;;;9.10;5.90;;;;;;;20.73;58.36;98108.19;8319325;28;20267;-75
2022/09/06 05:09:16;;;;;;;6.90;6.00;;;;;;;20.74;58.24;98105.44;8319500;28;20235;-76
2022/09/06 05:13:19;;;;;;;7.30;6.03;;;;;;;20.78;58.12;98117.38;8319067;28;20229;-75
2022/09/06 05:17:23;;;;;;;8.00;5.90;;;;;;;20.85;57.68;98123.81;8319417;28;20232;-75
2022/09/06 05:21:26;;;;;;;9.93;5.90;;;;;;;20.88;58.01;98128.78;8318979;28;20231;-75
2022/09/06 05:25:29;;;;;;;8.83;6.77;;;;;;;20.89;57.97;98119.94;8318966;28;20232;-75
2022/09/06 05:29:32;;;;;;;8.70;6.63;;;;;;;20.87;58.43;98127.13;8318650;28;20512;-75
2022/09/06 05:33:36;;;;;;;7.53;6.17;;;;;;;21.02;57.86;98148.72;8318716;28;20235;-75
2022/09/06 05:37:39;;;;;;;7.10;6.03;;;;;;;21.06;58.27;98146.66;8318433;28;20234;-75
2022/09/06 05:41:42;;;;;;;10.93;7.50;;;;;;;20.84;58.78;98134.47;8318362;28;20228;-75
2022/09/06 05:45:44;;;;;;;11.90;7.17;;;;;;;20.94;58.73;98143.25;8318118;28;20229;-75
2022/09/06 05:49:49;;;;;;;12.83;6.73;;;;;;;20.99;58.71;98145.50;8317322;28;20232;-75
2022/09/06 05:53:51;;;;;;;8.27;7.37;;;;;;;20.89;59.33;98122.56;8318048;28;20228;-75
2022/09/06 05:57:54;;;;;;;8.83;6.60;;;;;;;20.83;60.29;98123.09;8317839;28;20237;-75
2022/09/06 06:01:57;;;;;;;9.67;7.47;;;;;;;20.77;60.00;98123.63;8317543;28;20222;-75
2022/09/06 06:06:02;;;;;;;8.80;7.73;;;;;;;20.83;60.24;98131.00;8317400;28;20255;-75
2022/09/06 06:10:05;;;;;;;9.63;7.00;;;;;;;20.67;60.90;98120.06;8317536;28;20260;-76
2022/09/06 06:14:08;;;;;;;8.00;7.03;;;;;;;20.96;60.42;98122.91;8317600;28;20220;-75
2022/09/06 06:18:11;;;;;;;9.17;8.13;;;;;;;20.42;62.31;98129.97;8317430;28;20229;-75
2022/09/06 06:22:16;;;;;;;10.10;7.97;;;;;;;20.76;61.49;98121.13;8317200;28;20229;-75
2022/09/06 06:26:19;;;;;;;8.90;7.87;;;;;;;20.69;61.90;98119.00;8317087;28;20233;-75
2022/09/06 06:30:21;;;;;;;8.60;7.57;;;;;;;20.86;61.57;98125.47;8316934;28;20469;-75
2022/09/06 06:34:24;;;;;;;9.43;8.63;;;;;;;20.61;63.03;98123.22;8316829;28;20233;-76
2022/09/06 06:38:33;;;;;;;8.73;7.83;;;;;;;20.99;61.71;98116.53;8316756;28;20230;-76
2022/09/06 06:42:36;;;;;;;11.23;8.93;;;;;;;20.92;61.79;98110.13;8316488;28;20228;-76
2022/09/06 06:46:40;;;;;;;9.43;8.53;;;;;;;21.33;60.95;98105.75;8316210;28;20234;-75
2022/09/06 06:50:43;;;;;;;9.77;8.77;;;;;;;21.47;60.12;98110.69;8316021;28;20412;-76
2022/09/06 06:54:48;;;;;;;9.43;8.43;;;;;;;21.80;58.93;98111.31;8316145;28;20234;-76
2022/09/06 06:58:53;;;;;;;14.20;7.70;;;;;;;22.16;58.74;98101.97;8315654;28;20314;-75
2022/09/06 07:02:58;;;;;;;10.67;9.27;;;;;;;21.89;59.16;98107.06;8314756;28;20347;-76
2022/09/06 07:07:02;;;;;;;12.67;8.53;;;;;;;22.12;58.55;98118.19;8315533;28;20295;-74
2022/09/06 07:11:26;;;;;;;9.63;8.60;;;;;;;21.98;59.28;98117.63;8315572;28;20292;-77
2022/09/06 07:15:28;;;;;;;15.33;9.83;;;;;;;21.75;59.68;98126.72;8315489;28;20220;-76
2022/09/06 07:19:31;;;;;;;9.47;8.43;;;;;;;21.93;59.67;98130.34;8315468;28;20251;-76
2022/09/06 07:23:54;;;;;;;13.23;9.30;;;;;;;21.88;59.52;98132.59;8314684;28;20242;-76
2022/09/06 07:28:14;;;;;;;10.57;8.67;;;;;;;21.94;59.21;98125.94;8315081;28;20421;-76
2022/09/06 07:32:17;;;;;;;9.43;8.53;;;;;;;21.96;59.96;98124.81;8315027;28;20229;-76
2022/09/06 07:36:20;;;;;;;8.73;7.37;;;;;;;22.70;57.77;98127.94;8314946;28;20224;-76
2022/09/06 07:40:23;;;;;;;9.93;8.17;;;;;;;22.94;56.44;98123.06;8315231;28;20240;-77
2022/09/06 07:44:28;;;;;;;10.80;7.23;;;;;;;23.33;56.02;98124.78;8315044;28;20299;-77
2022/09/06 07:48:33;;;;;;;9.00;6.37;;;;;;;23.26;55.83;98118.38;8314832;28;20233;-76
2022/09/06 07:52:36;;;;;;;10.07;6.60;;;;;;;23.27;55.33;98131.47;8314762;28;20231;-76
2022/09/06 07:56:58;;;;;;;13.57;5.57;;;;;;;23.61;53.49;98130.91;8314440;28;20232;-80
2022/09/06 08:01:17;;;;;;;8.47;5.73;;;;;;;23.77;53.77;98133.72;8314813;28;20231;-81
2022/09/06 08:05:20;;;;;;;10.20;6.93;;;;;;;23.59;54.19;98133.69;8314572;28;20467;-80
2022/09/06 08:09:43;;;;;;;8.17;6.10;;;;;;;23.72;54.21;98135.16;8314414;28;20230;-80
2022/09/06 08:13:49;;;;;;;8.57;6.67;;;;;;;23.55;55.07;98129.69;8316158;28;20428;-80
2022/09/06 08:17:53;;;;;;;12.03;7.00;;;;;;;23.27;55.52;98141.22;8320600;28;20226;-82
2022/09/06 08:21:56;;;;;;;10.20;6.20;;;;;;;23.39;55.49;98124.19;8321198;28;20221;-80
2022/09/06 08:25:59;;;;;;;6.50;5.77;;;;;;;23.68;54.76;98128.50;8320048;28;20231;-81
2022/09/06 08:30:02;;;;;;;7.13;6.10;;;;;;;24.05;54.18;98133.75;8320992;28;20242;-80
2022/09/06 08:34:06;;;;;;;6.40;5.77;;;;;;;24.51;52.46;98137.19;8320657;28;20237;-80
2022/09/06 08:38:09;;;;;;;7.27;6.30;;;;;;;23.83;53.79;98137.63;8320764;28;20394;-81
2022/09/06 08:42:12;;;;;;;8.53;6.73;;;;;;;23.91;53.74;98140.38;8320579;28;20229;-80
2022/09/06 08:46:16;;;;;;;6.93;5.97;;;;;;;24.00;54.11;98141.28;8320055;28;20235;-80
2022/09/06 08:50:20;;;;;;;6.43;5.77;;;;;;;24.28;53.45;98135.97;8320081;28;20247;-80
2022/09/06 08:54:28;;;;;;;9.73;6.47;;;;;;;24.72;52.31;98126.28;8320119;28;20241;-80
2022/09/06 08:58:45;;;;;;;5.80;5.20;;;;;;;24.73;52.19;98132.38;8319575;28;20235;-81
2022/09/06 09:02:51;;;;;;;6.87;6.17;;;;;;;24.87;51.48;98123.06;8318979;28;20271;-80
2022/09/06 09:06:59;;;;;;;8.03;5.97;;;;;;;25.09;51.15;98127.00;8319330;28;20233;-82
2022/09/06 09:11:04;;;;;;;11.87;6.43;;;;;;;25.11;50.61;98120.59;8319629;28;20228;-81
2022/09/06 09:15:10;;;;;;;5.20;4.70;;;;;;;25.69;49.55;98124.38;8319521;28;20528;-83
2022/09/06 09:19:13;;;;;;;8.87;6.57;;;;;;;25.21;51.02;98116.97;8319221;28;20528;-82
2022/09/06 09:23:17;;;;;;;7.60;6.20;;;;;;;25.79;49.43;98113.63;8319182;28;20242;-82
2022/09/06 09:27:22;;;;;;;6.10;5.53;;;;;;;26.56;47.57;98104.63;8318064;28;20239;-83
2022/09/06 09:31:34;;;;;;;8.67;6.00;;;;;;;25.58;50.33;98106.09;8318875;28;20232;-82
2022/09/06 09:35:41;;;;;;;10.27;5.50;;;;;;;26.16;49.02;98099.16;8318829;28;20538;-82
2022/09/06 09:39:45;;;;;;;7.90;5.80;;;;;;;27.11;46.78;98093.28;8318756;28;20240;-81
2022/09/06 09:43:56;;;;;;;6.77;5.33;;;;;;;27.68;44.65;98087.81;8317944;28;20239;-81
2022/09/06 09:48:19;;;;;;;5.80;5.20;;;;;;;28.19;42.28;98090.00;8318102;28;20258;-83
2022/09/06 09:52:25;;;;;;;5.00;4.57;;;;;;;28.50;41.99;98080.28;8318003;28;20227;-82
2022/09/06 09:56:34;;;;;;;6.77;4.93;;;;;;;28.78;41.06;98070.72;8317967;28;20530;-83
2022/09/06 10:00:39;;;;;;;5.97;5.27;;;;;;;28.61;40.56;98079.88;8318269;28;20243;-84
2022/09/06 10:04:45;;;;;;;7.97;5.13;;;;;;;28.29;40.47;98076.44;8317647;28;20430;-82
2022/09/06 10:08:48;;;;;;;5.57;4.00;;;;;;;28.59;40.94;98074.72;8317368;28;20231;-82
2022/09/06 10:13:06;;;;;;;6.43;4.37;;;;;;;28.36;41.52;98068.59;8317441;28;20234;-82
2022/09/06 10:17:19;;;;;;;4.83;4.20;;;;;;;29.04;40.00;98062.28;8317713;28;20234;-83
2022/09/06 10:21:22;;;;;;;7.03;3.90;;;;;;;29.44;39.73;98062.84;8317589;28;20532;-82
2022/09/06 10:25:40;;;;;;;5.53;4.23;;;;;;;29.75;38.99;98060.97;8318914;28;20233;-83
2022/09/06 10:29:54;;;;;;;5.17;4.00;;;;;;;29.82;38.26;98064.56;8317094;28;20238;-82
2022/09/06 10:34:03;;;;;;;6.20;4.07;;;;;;;29.39;38.77;98059.91;8316756;28;20506;-83
2022/09/06 10:38:20;;;;;;;5.10;4.00;;;;;;;29.92;37.35;98070.41;8317064;28;20245;-83
2022/09/06 10:42:30;;;;;;;4.80;3.50;;;;;;;30.27;37.18;98051.84;8316979;28;20236;-83
2022/09/06 10:46:35;;;;;;;5.73;3.10;;;;;;;29.92;37.92;98051.72;8316471;28;20404;-83
2022/09/06 10:50:43;;;;;;;40.27;4.43;;;;;;;30.30;37.41;98045.31;8316524;28;20239;-79
2022/09/06 10:54:46;;;;;;;3.87;2.90;;;;;;;30.48;36.97;98039.50;8316674;28;20243;-83
2022/09/06 10:58:54;;;;;;;4.40;3.10;;;;;;;30.36;37.23;98033.88;8315796;28;20256;-81
2022/09/06 11:03:22;;;;;;;3.40;2.33;;;;;;;30.47;35.72;98028.00;8315971;28;20520;-84
2022/09/06 11:07:46;;;;;;;3.63;2.40;;;;;;;30.65;33.69;98038.19;8315389;28;20235;-83
2022/09/06 11:12:13;;;;;;;8.23;2.53;;;;;;;31.01;33.44;98033.72;8314987;28;20228;-84
2022/09/06 11:16:19;;;;;;;5.17;2.30;;;;;;;30.99;33.45;98036.59;8315698;28;20229;-91
2022/09/06 11:20:27;;;;;;;5.80;2.10;;;;;;;30.72;32.85;98028.38;8316303;28;20229;-91
2022/09/06 11:24:44;;;;;;;4.87;2.60;;;;;;;30.71;33.83;98031.25;8315971;28;20251;-89
2022/09/06 11:28:49;;;;;;;2.90;2.20;;;;;;;31.02;33.00;98024.69;8315189;28;20249;-84
2022/09/06 11:33:06;;;;;;;7.03;2.00;;;;;;;31.22;31.84;98014.91;8315493;28;20238;-87
2022/09/06 11:37:25;;;;;;;4.77;2.40;;;;;;;31.14;32.07;98015.91;8315263;28;20550;-85
2022/09/06 11:41:29;;;;;;;5.70;2.40;;;;;;;31.02;32.00;98005.97;8316546;28;20236;-86
2022/09/06 11:45:40;;;;;;;3.97;2.17;;;;;;;31.06;32.64;98000.03;8315213;28;20231;-87
2022/09/06 11:49:43;;;;;;;3.40;2.13;;;;;;;31.35;33.12;97998.91;8316042;28;20235;-85
2022/09/06 11:54:09;;;;;;;2.90;2.10;;;;;;;30.99;32.57;98002.66;8314740;28;20240;-88
2022/09/06 11:58:22;;;;;;;3.97;2.00;;;;;;;30.92;32.19;98012.50;8314422;28;20242;-84
2022/09/06 12:02:32;;;;;;;4.10;2.13;;;;;;;31.27;32.00;98006.31;8314578;28;20242;-87
2022/09/06 12:06:38;;;;;;;4.53;2.30;;;;;;;30.88;32.59;98005.88;8314651;28;20261;-85
2022/09/06 12:10:48;;;;;;;5.43;2.27;;;;;;;30.64;32.88;97999.16;8314481;28;20237;-85
2022/09/06 12:14:51;;;;;;;4.87;2.40;;;;;;;30.88;33.02;97997.88;8314045;28;20235;-82
2022/09/06 12:18:56;;;;;;;5.27;2.50;;;;;;;31.17;32.62;97996.78;8314307;28;20233;-90
2022/09/06 12:22:59;;;;;;;8.17;2.13;;;;;;;30.44;33.82;97998.19;8314750;28;20410;-84
2022/09/06 12:27:14;;;;;;;3.80;2.33;;;;;;;29.89;34.46;97995.22;8314361;28;20222;-84
2022/09/06 12:31:24;;;;;;;7.43;2.50;;;;;;;29.78;34.57;97989.38;8314359;28;20529;-85
2022/09/06 12:35:30;;;;;;;5.20;2.10;;;;;;;29.61;35.54;97990.63;8314494;28;20227;-85
2022/09/06 12:39:57;;;;;;;4.10;2.00;;;;;;;29.79;36.24;97985.69;8313870;28;20247;-85
2022/09/06 12:44:02;;;;;;;4.60;2.27;;;;;;;29.68;36.16;97980.00;8314073;28;20235;-85
2022/09/06 12:48:08;;;;;;;7.60;2.40;;;;;;;30.71;34.70;97977.78;8314054;28;20394;-85
2022/09/06 12:52:12;;;;;;;4.80;2.70;;;;;;;30.85;32.59;97971.50;8313751;28;20244;-84
2022/09/06 12:56:20;;;;;;;3.43;2.30;;;;;;;31.10;32.66;97968.38;8313526;28;20229;-81
2022/09/06 13:00:26;;;;;;;3.63;2.10;;;;;;;31.07;33.06;97966.09;8314271;28;20233;-82
2022/09/06 13:04:33;;;;;;;4.23;2.07;;;;;;;31.55;32.05;97958.88;8319442;28;20245;-83
2022/09/06 13:08:38;;;;;;;10.20;2.30;;;;;;;31.58;31.58;97962.16;8319232;28;20231;-83
2022/09/06 13:12:44;;;;;;;3.33;2.00;;;;;;;31.79;31.93;97961.19;8319156;28;20580;-83
2022/09/06 13:16:50;;;;;;;3.10;2.07;;;;;;;31.93;31.23;97954.81;8318444;28;20287;-80
2022/09/06 13:21:04;;;;;;;5.40;2.07;;;;;;;32.17;30.12;97953.38;8319011;28;20243;-83
2022/09/06 13:25:13;;;;;;;4.90;2.10;;;;;;;32.41;30.08;97941.22;8318926;28;20236;-83
2022/09/06 13:29:22;;;;;;;6.97;2.20;;;;;;;32.48;30.52;97931.31;8318856;28;20238;-83
2022/09/06 13:33:27;;;;;;;3.90;1.97;;;;;;;32.54;29.98;97932.31;8318856;28;20227;-84
2022/09/06 13:37:32;;;;;;;6.20;2.10;;;;;;;32.52;30.37;97926.34;8318529;28;20235;-83
2022/09/06 13:41:39;;;;;;;9.80;2.20;;;;;;;32.43;29.86;97928.44;8318580;28;20327;-83
2022/09/06 13:45:44;;;;;;;5.40;1.80;;;;;;;32.35;29.92;97928.66;8319498;28;20242;-83
2022/09/06 13:49:48;;;;;;;2.33;1.67;;;;;;;32.33;29.24;97923.50;8318153;28;20231;-83
2022/09/06 13:53:51;;;;;;;3.33;1.90;;;;;;;32.09;30.36;97924.16;8317607;28;20230;-81
2022/09/06 13:57:53;;;;;;;4.13;1.80;;;;;;;32.34;30.94;97918.97;8317466;28;20259;-83
2022/09/06 14:02:00;;;;;;;5.70;2.10;;;;;;;32.41;30.61;97919.78;8317725;28;20417;-83
2022/09/06 14:06:05;;;;;;;4.20;1.87;;;;;;;32.49;30.92;97916.03;8317362;28;20248;-83
2022/09/06 14:10:10;;;;;;;5.50;2.00;;;;;;;32.39;30.28;97911.13;8317264;28;20266;-82
2022/09/06 14:14:13;;;;;;;6.27;1.70;;;;;;;31.75;29.65;97923.28;8316865;28;20307;-81
2022/09/06 14:18:17;;;;;;;4.90;1.80;;;;;;;32.07;29.49;97913.63;8317201;28;20235;-81
2022/09/06 14:22:21;;;;;;;3.43;1.60;;;;;;;32.12;30.00;97910.31;8317037;28;20232;-81
2022/09/06 14:26:24;;;;;;;3.37;1.80;;;;;;;31.82;29.94;97909.91;8316792;28;20236;-80
2022/09/06 14:30:26;;;;;;;2.87;1.50;;;;;;;31.95;29.24;97908.06;8316605;28;20241;-81
2022/09/06 14:34:29;;;;;;;5.67;1.50;;;;;;;31.53;29.05;97904.72;8316714;28;20228;-81
2022/09/06 14:38:35;;;;;;;3.37;1.67;;;;;;;31.58;29.95;97893.41;8316530;28;20551;-81
2022/09/06 14:42:38;;;;;;;3.10;1.67;;;;;;;31.09;30.59;97894.50;8316329;28;20234;-81
2022/09/06 14:46:41;;;;;;;5.93;1.80;;;;;;;31.18;30.41;97890.63;8316074;28;20229;-81
2022/09/06 14:50:44;;;;;;;4.87;1.60;;;;;;;31.20;30.38;97885.91;8315909;28;20261;-79
2022/09/06 14:54:48;;;;;;;4.67;1.60;;;;;;;31.31;30.22;97877.28;8316169;28;20230;-80
2022/09/06 14:58:56;;;;;;;4.40;1.80;;;;;;;31.33;31.02;97877.91;8315570;28;20521;-80
2022/09/06 15:02:59;;;;;;;7.07;1.70;;;;;;;31.13;31.15;97867.19;8315906;28;20517;-79
2022/09/06 15:07:02;;;;;;;3.03;1.70;;;;;;;30.98;31.31;97866.53;8315575;28;20244;-80
2022/09/06 15:11:07;;;;;;;2.63;1.50;;;;;;;31.16;31.13;97865.94;8315729;28;20241;-80
2022/09/06 15:15:10;;;;;;;7.63;1.80;;;;;;;31.05;31.44;97861.19;8315404;28;20232;-81
2022/09/06 15:19:13;;;;;;;7.50;1.87;;;;;;;31.03;31.64;97871.25;8315300;28;20235;-81
2022/09/06 15:23:17;;;;;;;2.60;1.83;;;;;;;30.85;32.54;97853.06;8314792;28;20233;-80
2022/09/06 15:27:29;;;;;;;3.10;1.60;;;;;;;30.63;32.38;97849.69;8315007;28;20538;-79
2022/09/06 15:31:33;;;;;;;5.13;1.60;;;;;;;30.20;32.91;97856.84;8315095;28;20235;-80
2022/09/06 15:35:38;;;;;;;2.47;1.73;;;;;;;30.46;33.32;97858.03;8315087;28;20230;-79
2022/09/06 15:39:41;;;;;;;9.23;1.60;;;;;;;30.33;32.55;97853.47;8315101;28;20234;-80
2022/09/06 15:43:47;;;;;;;5.63;1.73;;;;;;;30.10;32.86;97847.53;8314283;28;20559;-82
2022/09/06 15:47:49;;;;;;;4.03;1.60;;;;;;;29.82;32.09;97840.38;8314440;28;20244;-84
2022/09/06 15:51:52;;;;;;;5.87;1.80;;;;;;;29.61;33.15;97844.69;8314986;28;20233;-81
2022/09/06 15:55:59;;;;;;;4.80;1.80;;;;;;;29.32;33.53;97837.66;8315438;28;20227;-83
2022/09/06 16:00:04;;;;;;;4.37;1.77;;;;;;;29.19;33.82;97835.69;8314989;28;20246;-83
2022/09/06 16:04:07;;;;;;;2.57;1.43;;;;;;;29.04;33.86;97834.91;8315000;28;20349;-83
2022/09/06 16:08:10;;;;;;;2.43;1.73;;;;;;;29.08;33.15;97838.84;8325670;28;20428;-83
2022/09/06 16:12:13;;;;;;;7.00;1.80;;;;;;;29.10;33.41;97841.31;8314027;28;20235;-83
2022/09/06 16:16:17;;;;;;;2.93;1.63;;;;;;;28.91;34.16;97840.91;8313889;28;20228;-82
2022/09/06 16:20:21;;;;;;;4.80;1.57;;;;;;;28.67;34.17;97839.38;8314082;28;20304;-83
2022/09/06 16:24:25;;;;;;;3.37;1.80;;;;;;;28.48;34.57;97827.44;8313990;28;20226;-83
2022/09/06 16:28:30;;;;;;;5.93;1.70;;;;;;;28.35;34.39;97821.94;8314173;28;20298;-82
2022/09/06 16:32:34;;;;;;;4.13;1.63;;;;;;;28.25;35.08;97828.41;8313848;28;20239;-82
2022/09/06 16:36:37;;;;;;;4.33;1.70;;;;;;;28.26;34.83;97823.88;8318361;28;20224;-83
2022/09/06 16:40:43;;;;;;;4.30;1.80;;;;;;;28.19;34.86;97822.97;8320197;28;20558;-83
2022/09/06 16:44:47;;;;;;;3.80;1.67;;;;;;;28.09;35.14;97820.59;8320161;28;20233;-79
2022/09/06 16:48:55;;;;;;;3.03;1.60;;;;;;;28.01;35.69;97816.19;8319677;28;20228;-79
2022/09/06 16:52:58;;;;;;;5.23;1.83;;;;;;;27.95;36.27;97814.25;8319796;28;20401;-80
2022/09/06 16:57:01;;;;;;;3.80;1.60;;;;;;;27.96;36.40;97817.72;8319984;28;20228;-80
2022/09/06 17:01:05;;;;;;;6.33;2.03;;;;;;;27.83;38.04;97818.31;8319592;28;20258;-80
2022/09/06 17:05:09;;;;;;;3.73;1.90;;;;;;;27.77;38.64;97809.22;8319276;28;20256;-80
2022/09/06 17:09:13;;;;;;;6.07;2.50;;;;;;;27.71;38.60;97817.13;8319565;28;20425;-81
2022/09/06 17:13:16;;;;;;;6.47;2.57;;;;;;;27.59;39.46;97811.41;8319572;28;20397;-82
2022/09/06 17:17:19;;;;;;;2.67;2.10;;;;;;;27.50;39.34;97810.66;8319337;28;20238;-83
2022/09/06 17:21:24;;;;;;;7.03;2.40;;;;;;;27.45;39.43;97815.66;8319562;28;20233;-83
2022/09/06 17:25:27;;;;;;;3.30;2.30;;;;;;;27.33;39.96;97812.63;8319182;28;20234;-83
2022/09/06 17:29:31;;;;;;;5.30;2.37;;;;;;;27.22;40.44;97810.34;8318942;28;20241;-81
2022/09/06 17:33:35;;;;;;;5.27;2.87;;;;;;;27.15;41.08;97812.91;8318971;28;20235;-81
2022/09/06 17:37:39;;;;;;;18.07;10.23;;;;;;;27.06;41.24;97806.81;8318992;28;20240;-79
2022/09/06 17:41:44;;;;;;;8.17;3.60;;;;;;;26.96;41.29;97805.38;8318448;28;20251;-82
2022/09/06 17:45:47;;;;;;;11.50;4.70;;;;;;;26.81;41.88;97807.97;8321303;28;20242;-79
2022/09/06 17:49:50;;;;;;;14.90;6.70;;;;;;;26.70;42.45;97807.34;8317824;28;20243;-82
2022/09/06 17:53:54;;;;;;;21.80;6.20;;;;;;;26.59;43.42;97817.50;8317023;28;20234;-81
2022/09/06 17:57:58;;;;;;;13.37;6.97;;;;;;;26.44;43.08;97810.25;8318239;28;20222;-81
2022/09/06 18:02:00;;;;;;;13.07;6.47;;;;;;;26.33;44.18;97819.44;8318501;28;20237;-80
2022/09/06 18:06:06;;;;;;;21.93;6.80;;;;;;;26.28;44.09;97824.44;8317379;28;20446;-79
2022/09/06 18:10:12;;;;;;;7.57;3.50;;;;;;;26.26;45.06;97831.75;8318138;28;20531;-79
2022/09/06 18:14:17;;;;;;;7.10;3.20;;;;;;;26.13;45.31;97837.56;8317300;28;20237;-80
2022/09/06 18:18:20;;;;;;;15.30;7.23;;;;;;;26.09;45.71;97835.44;8317665;28;20377;-80
2022/09/06 18:22:23;;;;;;;16.83;7.40;;;;;;;26.07;45.89;97834.78;8317545;28;20629;-77
2022/09/06 18:26:27;;;;;;;17.07;6.87;;;;;;;25.93;46.48;97828.34;8317039;28;20230;-79
2022/09/06 18:30:30;;;;;;;11.03;5.37;;;;;;;25.96;46.83;97835.16;8316868;28;20230;-81
2022/09/06 18:34:33;;;;;;;13.57;5.83;;;;;;;25.93;47.08;97837.13;8317017;28;20238;-82
2022/09/06 18:38:37;;;;;;;12.23;5.03;;;;;;;25.82;47.85;97834.81;8316774;28;20245;-78
2022/09/06 18:42:44;;;;;;;6.03;3.20;;;;;;;25.68;48.74;97843.44;8316341;28;20238;-76
2022/09/06 18:46:47;;;;;;;7.90;3.40;;;;;;;25.54;49.15;97844.94;8316407;28;20230;-78
2022/09/06 18:50:50;;;;;;;7.23;3.53;;;;;;;25.45;49.83;97836.13;8315762;28;20263;-77
2022/09/06 18:54:53;;;;;;;9.47;3.70;;;;;;;25.40;49.80;97846.44;8316301;28;20228;-77
2022/09/06 18:58:58;;;;;;;7.93;3.50;;;;;;;25.35;49.79;97844.25;8314667;28;20236;-78
2022/09/06 19:03:01;;;;;;;11.13;4.53;;;;;;;25.18;49.88;97846.03;8315950;28;20275;-81
2022/09/06 19:07:04;;;;;;;11.23;4.57;;;;;;;25.10;49.83;97840.72;8315851;28;20245;-78
2022/09/06 19:11:09;;;;;;;14.27;5.20;;;;;;;25.00;49.84;97837.41;8315632;28;20238;-79
2022/09/06 19:15:13;;;;;;;5.40;3.20;;;;;;;24.97;50.21;97837.72;8315582;28;20229;-81